sensor_id;sensor_type;location;lat;lon;timestamp;P1;durP1;ratioP1;P2;durP2;ratioP2
20179;SDS011;10249;48.900;9.090;2023-02-01T00:00:14;11.17;;;10.67;;
20179;SDS011;10249;48.900;9.090;2023-02-01T00:02:41;11.70;;;11.07;;
20179;SDS011;10249;48.900;9.090;2023-02-01T00:05:09;10.83;;;10.43;;
20179;SDS011;10249;48.900;9.090;2023-02-01T00:07:37;10.57;;;10.17;;
20179;SDS011;10249;48.900;9.090;2023-02-01T00:10:05;10.83;;;10.43;;
20179;SDS011;10249;48.900;9.090;2023-02-01T00:12:32;10.80;;;10.40;;
20179;SDS011;10249;48.900;9.090;2023-02-01T00:15:00;10.50;;;10.10;;
20179;SDS011;10249;48.900;9.090;2023-02-01T00:17:27;10.30;;;10.00;;
20179;SDS011;10249;48.900;9.090;2023-02-01T00:19:54;11.00;;;10.60;;
20179;SDS011;10249;48.900;9.090;2023-02-01T00:22:21;11.20;;;10.80;;
20179;SDS011;10249;48.900;9.090;2023-02-01T00:24:49;11.20;;;10.80;;
20179;SDS011;10249;48.900;9.090;2023-02-01T00:27:16;11.47;;;10.97;;
20179;SDS011;10249;48.900;9.090;2023-02-01T00:29:46;10.77;;;10.37;;
20179;SDS011;10249;48.900;9.090;2023-02-01T00:32:13;10.47;;;10.07;;
20179;SDS011;10249;48.900;9.090;2023-02-01T00:34:40;10.87;;;10.47;;
20179;SDS011;10249;48.900;9.090;2023-02-01T00:37:08;10.20;;;9.90;;
20179;SDS011;10249;48.900;9.090;2023-02-01T00:39:35;10.80;;;10.40;;
20179;SDS011;10249;48.900;9.090;2023-02-01T00:42:04;11.27;;;10.77;;
20179;SDS011;10249;48.900;9.090;2023-02-01T00:44:31;11.30;;;10.80;;
20179;SDS011;10249;48.900;9.090;2023-02-01T00:47:00;11.03;;;10.63;;
20179;SDS011;10249;48.900;9.090;2023-02-01T00:49:27;11.27;;;10.77;;
20179;SDS011;10249;48.900;9.090;2023-02-01T00:51:54;11.07;;;10.67;;
20179;SDS011;10249;48.900;9.090;2023-02-01T00:54:21;11.30;;;10.80;;
20179;SDS011;10249;48.900;9.090;2023-02-01T00:56:48;11.98;;;11.40;;
20179;SDS011;10249;48.900;9.090;2023-02-01T00:59:17;12.07;;;11.57;;
20179;SDS011;10249;48.900;9.090;2023-02-01T01:01:44;11.77;;;11.17;;
20179;SDS011;10249;48.900;9.090;2023-02-01T01:04:11;11.20;;;10.70;;
20179;SDS011;10249;48.900;9.090;2023-02-01T01:06:38;11.37;;;10.87;;
20179;SDS011;10249;48.900;9.090;2023-02-01T01:09:06;11.03;;;10.53;;
20179;SDS011;10249;48.900;9.090;2023-02-01T01:11:34;12.17;;;11.60;;
20179;SDS011;10249;48.900;9.090;2023-02-01T01:14:02;10.33;;;9.97;;
20179;SDS011;10249;48.900;9.090;2023-02-01T01:16:31;11.87;;;11.37;;
20179;SDS011;10249;48.900;9.090;2023-02-01T01:18:58;10.67;;;10.27;;
20179;SDS011;10249;48.900;9.090;2023-02-01T01:21:25;11.60;;;11.10;;
20179;SDS011;10249;48.900;9.090;2023-02-01T01:23:52;11.53;;;11.03;;
20179;SDS011;10249;48.900;9.090;2023-02-01T01:26:20;11.17;;;10.67;;
20179;SDS011;10249;48.900;9.090;2023-02-01T01:28:48;10.60;;;10.20;;
20179;SDS011;10249;48.900;9.090;2023-02-01T01:31:16;11.33;;;10.40;;
20179;SDS011;10249;48.900;9.090;2023-02-01T01:33:46;10.63;;;10.23;;
20179;SDS011;10249;48.900;9.090;2023-02-01T01:36:13;10.90;;;10.40;;
20179;SDS011;10249;48.900;9.090;2023-02-01T01:38:41;10.73;;;10.33;;
20179;SDS011;10249;48.900;9.090;2023-02-01T01:41:08;11.03;;;10.57;;
20179;SDS011;10249;48.900;9.090;2023-02-01T01:43:48;10.10;;;9.80;;
20179;SDS011;10249;48.900;9.090;2023-02-01T01:46:16;11.80;;;11.20;;
20179;SDS011;10249;48.900;9.090;2023-02-01T01:48:45;10.93;;;10.37;;
20179;SDS011;10249;48.900;9.090;2023-02-01T01:51:12;10.37;;;9.97;;
20179;SDS011;10249;48.900;9.090;2023-02-01T01:53:42;9.53;;;9.23;;
20179;SDS011;10249;48.900;9.090;2023-02-01T01:56:10;11.47;;;11.03;;
20179;SDS011;10249;48.900;9.090;2023-02-01T01:58:38;10.20;;;9.80;;
20179;SDS011;10249;48.900;9.090;2023-02-01T02:01:05;10.93;;;10.53;;
20179;SDS011;10249;48.900;9.090;2023-02-01T02:03:33;10.67;;;10.27;;
20179;SDS011;10249;48.900;9.090;2023-02-01T02:06:03;10.37;;;9.97;;
20179;SDS011;10249;48.900;9.090;2023-02-01T02:08:32;11.27;;;10.77;;
20179;SDS011;10249;48.900;9.090;2023-02-01T02:11:00;10.17;;;9.83;;
20179;SDS011;10249;48.900;9.090;2023-02-01T02:13:27;10.63;;;10.13;;
20179;SDS011;10249;48.900;9.090;2023-02-01T02:16:04;10.55;;;10.15;;
20179;SDS011;10249;48.900;9.090;2023-02-01T02:18:33;10.17;;;9.83;;
20179;SDS011;10249;48.900;9.090;2023-02-01T02:21:11;10.37;;;10.03;;
20179;SDS011;10249;48.900;9.090;2023-02-01T02:23:45;10.60;;;10.10;;
20179;SDS011;10249;48.900;9.090;2023-02-01T02:26:39;10.80;;;10.40;;
20179;SDS011;10249;48.900;9.090;2023-02-01T02:31:58;10.43;;;10.03;;
20179;SDS011;10249;48.900;9.090;2023-02-01T02:34:32;10.17;;;9.87;;
20179;SDS011;10249;48.900;9.090;2023-02-01T02:37:04;10.37;;;10.00;;
20179;SDS011;10249;48.900;9.090;2023-02-01T02:39:38;10.93;;;10.53;;
20179;SDS011;10249;48.900;9.090;2023-02-01T02:42:08;10.30;;;10.00;;
20179;SDS011;10249;48.900;9.090;2023-02-01T02:44:57;10.30;;;10.00;;
20179;SDS011;10249;48.900;9.090;2023-02-01T02:47:46;10.77;;;10.37;;
20179;SDS011;10249;48.900;9.090;2023-02-01T02:50:19;10.70;;;10.30;;
20179;SDS011;10249;48.900;9.090;2023-02-01T02:53:08;10.50;;;10.10;;
20179;SDS011;10249;48.900;9.090;2023-02-01T02:55:54;11.40;;;10.83;;
20179;SDS011;10249;48.900;9.090;2023-02-01T02:58:40;11.30;;;10.90;;
20179;SDS011;10249;48.900;9.090;2023-02-01T03:01:25;10.80;;;10.40;;
20179;SDS011;10249;48.900;9.090;2023-02-01T03:04:09;10.30;;;10.00;;
20179;SDS011;10249;48.900;9.090;2023-02-01T03:06:43;10.63;;;10.23;;
20179;SDS011;10249;48.900;9.090;2023-02-01T03:09:13;10.90;;;10.50;;
20179;SDS011;10249;48.900;9.090;2023-02-01T03:11:41;10.63;;;10.23;;
20179;SDS011;10249;48.900;9.090;2023-02-01T03:14:28;11.63;;;11.13;;
20179;SDS011;10249;48.900;9.090;2023-02-01T03:16:57;10.40;;;10.10;;
20179;SDS011;10249;48.900;9.090;2023-02-01T03:19:27;10.33;;;9.93;;
20179;SDS011;10249;48.900;9.090;2023-02-01T03:21:58;10.90;;;10.40;;
20179;SDS011;10249;48.900;9.090;2023-02-01T03:24:27;10.40;;;10.07;;
20179;SDS011;10249;48.900;9.090;2023-02-01T03:27:01;11.30;;;10.83;;
20179;SDS011;10249;48.900;9.090;2023-02-01T03:29:29;10.43;;;10.07;;
20179;SDS011;10249;48.900;9.090;2023-02-01T03:31:57;11.07;;;10.67;;
20179;SDS011;10249;48.900;9.090;2023-02-01T03:34:24;10.40;;;10.10;;
20179;SDS011;10249;48.900;9.090;2023-02-01T03:36:53;11.77;;;10.83;;
20179;SDS011;10249;48.900;9.090;2023-02-01T03:39:27;11.73;;;11.23;;
20179;SDS011;10249;48.900;9.090;2023-02-01T03:41:57;10.70;;;10.30;;
20179;SDS011;10249;48.900;9.090;2023-02-01T03:44:26;11.27;;;10.83;;
20179;SDS011;10249;48.900;9.090;2023-02-01T03:46:55;10.50;;;10.10;;
20179;SDS011;10249;48.900;9.090;2023-02-01T03:49:25;11.13;;;10.63;;
20179;SDS011;10249;48.900;9.090;2023-02-01T03:51:53;11.20;;;10.70;;
20179;SDS011;10249;48.900;9.090;2023-02-01T03:54:21;11.13;;;10.73;;
20179;SDS011;10249;48.900;9.090;2023-02-01T03:56:50;11.60;;;11.13;;
20179;SDS011;10249;48.900;9.090;2023-02-01T03:59:17;11.40;;;10.83;;
20179;SDS011;10249;48.900;9.090;2023-02-01T04:01:45;10.57;;;10.17;;
20179;SDS011;10249;48.900;9.090;2023-02-01T04:04:12;10.97;;;10.57;;
20179;SDS011;10249;48.900;9.090;2023-02-01T04:06:44;11.43;;;11.03;;
20179;SDS011;10249;48.900;9.090;2023-02-01T04:09:11;10.60;;;10.23;;
20179;SDS011;10249;48.900;9.090;2023-02-01T04:11:38;11.40;;;10.80;;
20179;SDS011;10249;48.900;9.090;2023-02-01T04:14:07;11.17;;;10.77;;
20179;SDS011;10249;48.900;9.090;2023-02-01T04:16:34;11.10;;;10.60;;
20179;SDS011;10249;48.900;9.090;2023-02-01T04:19:01;11.13;;;10.40;;
20179;SDS011;10249;48.900;9.090;2023-02-01T04:21:29;10.60;;;10.20;;
20179;SDS011;10249;48.900;9.090;2023-02-01T04:23:56;10.20;;;9.80;;
20179;SDS011;10249;48.900;9.090;2023-02-01T04:26:23;10.80;;;10.20;;
20179;SDS011;10249;48.900;9.090;2023-02-01T04:28:50;11.20;;;10.70;;
20179;SDS011;10249;48.900;9.090;2023-02-01T04:31:19;10.60;;;10.20;;
20179;SDS011;10249;48.900;9.090;2023-02-01T04:33:50;11.47;;;10.97;;
20179;SDS011;10249;48.900;9.090;2023-02-01T04:36:17;11.33;;;10.83;;
20179;SDS011;10249;48.900;9.090;2023-02-01T04:38:46;11.03;;;10.63;;
20179;SDS011;10249;48.900;9.090;2023-02-01T04:41:13;12.57;;;11.90;;
20179;SDS011;10249;48.900;9.090;2023-02-01T04:43:43;12.97;;;12.40;;
20179;SDS011;10249;48.900;9.090;2023-02-01T04:46:10;12.83;;;12.23;;
20179;SDS011;10249;48.900;9.090;2023-02-01T04:48:39;12.10;;;11.50;;
20179;SDS011;10249;48.900;9.090;2023-02-01T04:51:06;11.37;;;10.97;;
20179;SDS011;10249;48.900;9.090;2023-02-01T04:53:33;12.37;;;11.87;;
20179;SDS011;10249;48.900;9.090;2023-02-01T04:56:00;12.17;;;11.67;;
20179;SDS011;10249;48.900;9.090;2023-02-01T04:58:27;12.20;;;11.70;;
20179;SDS011;10249;48.900;9.090;2023-02-01T05:00:54;11.57;;;11.07;;
20179;SDS011;10249;48.900;9.090;2023-02-01T05:03:21;12.17;;;11.67;;
20179;SDS011;10249;48.900;9.090;2023-02-01T05:05:50;11.30;;;10.90;;
20179;SDS011;10249;48.900;9.090;2023-02-01T05:08:18;11.23;;;10.83;;
20179;SDS011;10249;48.900;9.090;2023-02-01T05:10:47;11.60;;;11.10;;
20179;SDS011;10249;48.900;9.090;2023-02-01T05:13:14;11.60;;;11.10;;
20179;SDS011;10249;48.900;9.090;2023-02-01T05:15:59;11.47;;;10.83;;
20179;SDS011;10249;48.900;9.090;2023-02-01T05:18:26;11.67;;;11.07;;
20179;SDS011;10249;48.900;9.090;2023-02-01T05:20:54;11.20;;;10.80;;
20179;SDS011;10249;48.900;9.090;2023-02-01T05:23:21;11.70;;;11.20;;
20179;SDS011;10249;48.900;9.090;2023-02-01T05:25:48;11.27;;;10.77;;
20179;SDS011;10249;48.900;9.090;2023-02-01T05:28:15;11.03;;;10.63;;
20179;SDS011;10249;48.900;9.090;2023-02-01T05:30:42;11.07;;;10.57;;
20179;SDS011;10249;48.900;9.090;2023-02-01T05:33:09;11.30;;;10.80;;
20179;SDS011;10249;48.900;9.090;2023-02-01T05:35:37;12.27;;;11.77;;
20179;SDS011;10249;48.900;9.090;2023-02-01T05:38:05;11.90;;;11.40;;
20179;SDS011;10249;48.900;9.090;2023-02-01T05:40:32;12.57;;;11.93;;
20179;SDS011;10249;48.900;9.090;2023-02-01T05:42:59;12.40;;;11.90;;
20179;SDS011;10249;48.900;9.090;2023-02-01T05:45:26;11.90;;;11.40;;
20179;SDS011;10249;48.900;9.090;2023-02-01T05:47:53;11.67;;;11.27;;
20179;SDS011;10249;48.900;9.090;2023-02-01T05:50:20;11.53;;;11.13;;
20179;SDS011;10249;48.900;9.090;2023-02-01T05:52:47;12.43;;;11.93;;
20179;SDS011;10249;48.900;9.090;2023-02-01T05:55:16;13.07;;;12.37;;
20179;SDS011;10249;48.900;9.090;2023-02-01T05:57:43;13.03;;;12.33;;
20179;SDS011;10249;48.900;9.090;2023-02-01T06:00:10;12.43;;;11.83;;
20179;SDS011;10249;48.900;9.090;2023-02-01T06:02:37;12.33;;;11.83;;
20179;SDS011;10249;48.900;9.090;2023-02-01T06:05:06;13.00;;;12.40;;
20179;SDS011;10249;48.900;9.090;2023-02-01T06:07:33;11.93;;;11.43;;
20179;SDS011;10249;48.900;9.090;2023-02-01T06:10:00;12.37;;;11.77;;
20179;SDS011;10249;48.900;9.090;2023-02-01T06:12:28;12.50;;;11.90;;
20179;SDS011;10249;48.900;9.090;2023-02-01T06:14:55;12.53;;;11.93;;
20179;SDS011;10249;48.900;9.090;2023-02-01T06:17:23;14.27;;;13.37;;
20179;SDS011;10249;48.900;9.090;2023-02-01T06:19:50;13.17;;;12.47;;
20179;SDS011;10249;48.900;9.090;2023-02-01T06:22:17;13.10;;;11.90;;
20179;SDS011;10249;48.900;9.090;2023-02-01T06:24:44;13.87;;;12.90;;
20179;SDS011;10249;48.900;9.090;2023-02-01T06:27:11;12.90;;;12.20;;
20179;SDS011;10249;48.900;9.090;2023-02-01T06:29:40;11.37;;;10.70;;
20179;SDS011;10249;48.900;9.090;2023-02-01T06:32:07;13.43;;;12.53;;
20179;SDS011;10249;48.900;9.090;2023-02-01T06:34:35;13.50;;;12.70;;
20179;SDS011;10249;48.900;9.090;2023-02-01T06:37:04;13.97;;;13.13;;
20179;SDS011;10249;48.900;9.090;2023-02-01T06:39:31;14.00;;;13.13;;
20179;SDS011;10249;48.900;9.090;2023-02-01T06:41:58;13.43;;;12.57;;
20179;SDS011;10249;48.900;9.090;2023-02-01T06:44:25;14.43;;;13.47;;
20179;SDS011;10249;48.900;9.090;2023-02-01T06:46:54;14.13;;;13.10;;
20179;SDS011;10249;48.900;9.090;2023-02-01T06:49:21;14.23;;;13.33;;
20179;SDS011;10249;48.900;9.090;2023-02-01T06:51:48;13.23;;;12.43;;
20179;SDS011;10249;48.900;9.090;2023-02-01T06:54:15;14.35;;;13.32;;
20179;SDS011;10249;48.900;9.090;2023-02-01T06:56:42;15.20;;;14.05;;
20179;SDS011;10249;48.900;9.090;2023-02-01T06:59:09;14.17;;;13.13;;
20179;SDS011;10249;48.900;9.090;2023-02-01T07:01:37;12.37;;;11.67;;
20179;SDS011;10249;48.900;9.090;2023-02-01T07:04:06;14.90;;;13.53;;
20179;SDS011;10249;48.900;9.090;2023-02-01T07:06:33;15.73;;;14.63;;
20179;SDS011;10249;48.900;9.090;2023-02-01T07:09:00;15.10;;;13.70;;
20179;SDS011;10249;48.900;9.090;2023-02-01T07:11:27;14.47;;;13.33;;
20179;SDS011;10249;48.900;9.090;2023-02-01T07:13:54;14.47;;;13.27;;
20179;SDS011;10249;48.900;9.090;2023-02-01T07:16:21;14.80;;;13.87;;
20179;SDS011;10249;48.900;9.090;2023-02-01T07:18:49;15.00;;;14.07;;
20179;SDS011;10249;48.900;9.090;2023-02-01T07:21:17;15.50;;;14.43;;
20179;SDS011;10249;48.900;9.090;2023-02-01T07:23:45;14.97;;;14.07;;
20179;SDS011;10249;48.900;9.090;2023-02-01T07:26:13;15.43;;;14.37;;
20179;SDS011;10249;48.900;9.090;2023-02-01T07:28:41;16.20;;;15.23;;
20179;SDS011;10249;48.900;9.090;2023-02-01T07:31:09;13.00;;;12.30;;
20179;SDS011;10249;48.900;9.090;2023-02-01T07:33:36;13.27;;;12.60;;
20179;SDS011;10249;48.900;9.090;2023-02-01T07:36:04;15.33;;;14.00;;
20179;SDS011;10249;48.900;9.090;2023-02-01T07:38:33;15.07;;;14.17;;
20179;SDS011;10249;48.900;9.090;2023-02-01T07:41:01;14.55;;;13.70;;
20179;SDS011;10249;48.900;9.090;2023-02-01T07:43:28;14.43;;;13.50;;
20179;SDS011;10249;48.900;9.090;2023-02-01T07:45:56;16.37;;;14.73;;
20179;SDS011;10249;48.900;9.090;2023-02-01T07:48:23;14.93;;;13.87;;
20179;SDS011;10249;48.900;9.090;2023-02-01T07:50:56;15.33;;;14.27;;
20179;SDS011;10249;48.900;9.090;2023-02-01T07:53:23;15.67;;;14.47;;
20179;SDS011;10249;48.900;9.090;2023-02-01T07:55:52;15.10;;;14.07;;
20179;SDS011;10249;48.900;9.090;2023-02-01T07:58:20;14.40;;;13.60;;
20179;SDS011;10249;48.900;9.090;2023-02-01T08:00:48;15.60;;;14.40;;
20179;SDS011;10249;48.900;9.090;2023-02-01T08:03:32;14.23;;;13.13;;
20179;SDS011;10249;48.900;9.090;2023-02-01T08:05:59;14.47;;;13.27;;
20179;SDS011;10249;48.900;9.090;2023-02-01T08:08:27;14.20;;;13.30;;
20179;SDS011;10249;48.900;9.090;2023-02-01T08:10:58;15.37;;;14.23;;
20179;SDS011;10249;48.900;9.090;2023-02-01T08:13:25;14.77;;;13.77;;
20179;SDS011;10249;48.900;9.090;2023-02-01T08:15:52;14.63;;;13.50;;
20179;SDS011;10249;48.900;9.090;2023-02-01T08:18:19;15.53;;;14.37;;
20179;SDS011;10249;48.900;9.090;2023-02-01T08:20:46;14.03;;;13.10;;
20179;SDS011;10249;48.900;9.090;2023-02-01T08:23:13;13.57;;;12.83;;
20179;SDS011;10249;48.900;9.090;2023-02-01T08:25:40;14.70;;;13.73;;
20179;SDS011;10249;48.900;9.090;2023-02-01T08:28:08;14.13;;;13.13;;
20179;SDS011;10249;48.900;9.090;2023-02-01T08:30:36;13.57;;;12.67;;
20179;SDS011;10249;48.900;9.090;2023-02-01T08:33:03;13.03;;;12.13;;
20179;SDS011;10249;48.900;9.090;2023-02-01T08:35:31;13.23;;;12.33;;
20179;SDS011;10249;48.900;9.090;2023-02-01T08:37:59;16.07;;;14.80;;
20179;SDS011;10249;48.900;9.090;2023-02-01T08:40:26;14.43;;;13.33;;
20179;SDS011;10249;48.900;9.090;2023-02-01T08:42:53;14.53;;;13.63;;
20179;SDS011;10249;48.900;9.090;2023-02-01T08:45:22;15.00;;;13.67;;
20179;SDS011;10249;48.900;9.090;2023-02-01T08:47:49;13.57;;;12.77;;
20179;SDS011;10249;48.900;9.090;2023-02-01T08:50:17;15.27;;;13.90;;
20179;SDS011;10249;48.900;9.090;2023-02-01T08:52:44;15.33;;;14.20;;
20179;SDS011;10249;48.900;9.090;2023-02-01T08:55:12;16.27;;;15.27;;
20179;SDS011;10249;48.900;9.090;2023-02-01T08:57:41;15.70;;;14.53;;
20179;SDS011;10249;48.900;9.090;2023-02-01T09:00:10;15.73;;;14.40;;
20179;SDS011;10249;48.900;9.090;2023-02-01T09:02:39;15.40;;;14.03;;
20179;SDS011;10249;48.900;9.090;2023-02-01T09:05:06;15.00;;;14.00;;
20179;SDS011;10249;48.900;9.090;2023-02-01T09:07:34;14.43;;;13.37;;
20179;SDS011;10249;48.900;9.090;2023-02-01T09:10:01;14.27;;;13.27;;
20179;SDS011;10249;48.900;9.090;2023-02-01T09:12:29;14.93;;;13.83;;
20179;SDS011;10249;48.900;9.090;2023-02-01T09:14:56;15.03;;;13.80;;
20179;SDS011;10249;48.900;9.090;2023-02-01T09:17:24;13.43;;;12.67;;
20179;SDS011;10249;48.900;9.090;2023-02-01T09:19:53;14.03;;;13.03;;
20179;SDS011;10249;48.900;9.090;2023-02-01T09:22:20;13.93;;;13.10;;
20179;SDS011;10249;48.900;9.090;2023-02-01T09:24:47;13.00;;;12.37;;
20179;SDS011;10249;48.900;9.090;2023-02-01T09:27:14;15.23;;;14.13;;
20179;SDS011;10249;48.900;9.090;2023-02-01T09:29:41;13.87;;;12.57;;
20179;SDS011;10249;48.900;9.090;2023-02-01T09:32:08;15.77;;;14.53;;
20179;SDS011;10249;48.900;9.090;2023-02-01T09:34:35;15.00;;;14.00;;
20179;SDS011;10249;48.900;9.090;2023-02-01T09:37:04;16.10;;;14.97;;
20179;SDS011;10249;48.900;9.090;2023-02-01T09:39:31;14.50;;;13.57;;
20179;SDS011;10249;48.900;9.090;2023-02-01T09:42:00;16.07;;;14.73;;
20179;SDS011;10249;48.900;9.090;2023-02-01T09:44:39;14.03;;;13.27;;
20179;SDS011;10249;48.900;9.090;2023-02-01T09:47:11;15.80;;;14.47;;
20179;SDS011;10249;48.900;9.090;2023-02-01T09:49:42;16.43;;;15.33;;
20179;SDS011;10249;48.900;9.090;2023-02-01T09:52:13;14.30;;;13.33;;
20179;SDS011;10249;48.900;9.090;2023-02-01T09:54:42;14.40;;;13.40;;
20179;SDS011;10249;48.900;9.090;2023-02-01T09:57:13;15.33;;;13.93;;
20179;SDS011;10249;48.900;9.090;2023-02-01T09:59:43;15.03;;;13.90;;
20179;SDS011;10249;48.900;9.090;2023-02-01T10:02:12;16.27;;;14.73;;
20179;SDS011;10249;48.900;9.090;2023-02-01T10:04:40;15.60;;;14.30;;
20179;SDS011;10249;48.900;9.090;2023-02-01T10:07:15;16.73;;;15.17;;
20179;SDS011;10249;48.900;9.090;2023-02-01T10:09:50;16.43;;;15.30;;
20179;SDS011;10249;48.900;9.090;2023-02-01T10:15:09;15.60;;;14.40;;
20179;SDS011;10249;48.900;9.090;2023-02-01T10:17:44;15.30;;;14.30;;
20179;SDS011;10249;48.900;9.090;2023-02-01T10:20:17;18.57;;;14.47;;
20179;SDS011;10249;48.900;9.090;2023-02-01T10:22:51;17.23;;;16.13;;
20179;SDS011;10249;48.900;9.090;2023-02-01T10:25:22;15.83;;;14.57;;
20179;SDS011;10249;48.900;9.090;2023-02-01T10:27:50;16.77;;;15.40;;
20179;SDS011;10249;48.900;9.090;2023-02-01T10:30:18;16.30;;;14.97;;
20179;SDS011;10249;48.900;9.090;2023-02-01T10:32:45;15.90;;;14.53;;
20179;SDS011;10249;48.900;9.090;2023-02-01T10:35:15;15.60;;;14.53;;
20179;SDS011;10249;48.900;9.090;2023-02-01T10:37:43;15.03;;;13.87;;
20179;SDS011;10249;48.900;9.090;2023-02-01T10:40:15;14.60;;;13.67;;
20179;SDS011;10249;48.900;9.090;2023-02-01T10:42:42;15.43;;;14.20;;
20179;SDS011;10249;48.900;9.090;2023-02-01T10:45:11;15.40;;;14.30;;
20179;SDS011;10249;48.900;9.090;2023-02-01T10:47:39;15.57;;;14.27;;
20179;SDS011;10249;48.900;9.090;2023-02-01T10:50:11;15.63;;;14.23;;
20179;SDS011;10249;48.900;9.090;2023-02-01T10:52:40;16.77;;;15.40;;
20179;SDS011;10249;48.900;9.090;2023-02-01T10:57:56;17.37;;;15.80;;
20179;SDS011;10249;48.900;9.090;2023-02-01T11:00:24;16.97;;;15.67;;
20179;SDS011;10249;48.900;9.090;2023-02-01T11:02:51;15.97;;;14.47;;
20179;SDS011;10249;48.900;9.090;2023-02-01T11:05:18;17.30;;;15.80;;
20179;SDS011;10249;48.900;9.090;2023-02-01T11:07:48;16.20;;;14.97;;
20179;SDS011;10249;48.900;9.090;2023-02-01T11:12:59;16.77;;;15.27;;
20179;SDS011;10249;48.900;9.090;2023-02-01T11:15:28;16.13;;;14.67;;
20179;SDS011;10249;48.900;9.090;2023-02-01T11:17:55;16.07;;;14.97;;
20179;SDS011;10249;48.900;9.090;2023-02-01T11:20:29;15.30;;;14.27;;
20179;SDS011;10249;48.900;9.090;2023-02-01T11:23:01;16.03;;;14.40;;
20179;SDS011;10249;48.900;9.090;2023-02-01T11:25:29;14.63;;;13.77;;
20179;SDS011;10249;48.900;9.090;2023-02-01T11:27:58;17.10;;;15.37;;
20179;SDS011;10249;48.900;9.090;2023-02-01T11:30:29;16.60;;;15.20;;
20179;SDS011;10249;48.900;9.090;2023-02-01T11:32:58;15.37;;;14.27;;
20179;SDS011;10249;48.900;9.090;2023-02-01T11:35:26;16.10;;;14.70;;
20179;SDS011;10249;48.900;9.090;2023-02-01T11:37:55;16.60;;;15.10;;
20179;SDS011;10249;48.900;9.090;2023-02-01T11:40:26;15.90;;;14.63;;
20179;SDS011;10249;48.900;9.090;2023-02-01T11:42:54;17.40;;;15.80;;
20179;SDS011;10249;48.900;9.090;2023-02-01T11:45:26;17.17;;;15.63;;
20179;SDS011;10249;48.900;9.090;2023-02-01T11:47:54;17.07;;;15.63;;
20179;SDS011;10249;48.900;9.090;2023-02-01T11:50:25;16.07;;;14.97;;
20179;SDS011;10249;48.900;9.090;2023-02-01T11:53:03;17.63;;;16.30;;
20179;SDS011;10249;48.900;9.090;2023-02-01T11:58:19;18.03;;;16.73;;
20179;SDS011;10249;48.900;9.090;2023-02-01T12:00:55;17.53;;;16.00;;
20179;SDS011;10249;48.900;9.090;2023-02-01T12:06:17;16.97;;;15.77;;
20179;SDS011;10249;48.900;9.090;2023-02-01T12:08:58;17.33;;;15.70;;
20179;SDS011;10249;48.900;9.090;2023-02-01T12:11:30;16.80;;;15.43;;
20179;SDS011;10249;48.900;9.090;2023-02-01T12:14:02;16.27;;;15.03;;
20179;SDS011;10249;48.900;9.090;2023-02-01T12:16:37;16.97;;;15.60;;
20179;SDS011;10249;48.900;9.090;2023-02-01T12:19:15;15.60;;;14.60;;
20179;SDS011;10249;48.900;9.090;2023-02-01T12:21:48;17.33;;;15.63;;
20179;SDS011;10249;48.900;9.090;2023-02-01T12:24:29;16.30;;;15.03;;
20179;SDS011;10249;48.900;9.090;2023-02-01T12:27:04;16.40;;;15.23;;
20179;SDS011;10249;48.900;9.090;2023-02-01T12:29:47;17.30;;;15.53;;
20179;SDS011;10249;48.900;9.090;2023-02-01T12:32:28;15.70;;;14.70;;
20179;SDS011;10249;48.900;9.090;2023-02-01T12:35:09;16.30;;;14.90;;
20179;SDS011;10249;48.900;9.090;2023-02-01T12:37:46;17.73;;;16.40;;
20179;SDS011;10249;48.900;9.090;2023-02-01T12:40:21;17.97;;;16.57;;
20179;SDS011;10249;48.900;9.090;2023-02-01T12:42:53;18.23;;;16.53;;
20179;SDS011;10249;48.900;9.090;2023-02-01T12:45:25;13.60;;;12.90;;
20179;SDS011;10249;48.900;9.090;2023-02-01T12:47:57;16.23;;;15.03;;
20179;SDS011;10249;48.900;9.090;2023-02-01T12:50:27;16.03;;;14.70;;
20179;SDS011;10249;48.900;9.090;2023-02-01T12:52:58;16.00;;;14.83;;
20179;SDS011;10249;48.900;9.090;2023-02-01T12:55:32;14.63;;;13.90;;
20179;SDS011;10249;48.900;9.090;2023-02-01T12:58:02;15.10;;;14.20;;
20179;SDS011;10249;48.900;9.090;2023-02-01T13:00:32;15.83;;;14.83;;
20179;SDS011;10249;48.900;9.090;2023-02-01T13:03:05;16.13;;;14.73;;
20179;SDS011;10249;48.900;9.090;2023-02-01T13:05:40;16.33;;;14.90;;
20179;SDS011;10249;48.900;9.090;2023-02-01T13:08:11;16.63;;;15.27;;
20179;SDS011;10249;48.900;9.090;2023-02-01T13:10:41;16.53;;;15.03;;
20179;SDS011;10249;48.900;9.090;2023-02-01T13:13:10;16.20;;;14.80;;
20179;SDS011;10249;48.900;9.090;2023-02-01T13:15:39;15.40;;;14.37;;
20179;SDS011;10249;48.900;9.090;2023-02-01T13:18:11;16.67;;;15.40;;
20179;SDS011;10249;48.900;9.090;2023-02-01T13:20:42;14.53;;;13.83;;
20179;SDS011;10249;48.900;9.090;2023-02-01T13:23:14;15.70;;;14.43;;
20179;SDS011;10249;48.900;9.090;2023-02-01T13:25:43;15.57;;;14.57;;
20179;SDS011;10249;48.900;9.090;2023-02-01T13:28:14;16.13;;;15.00;;
20179;SDS011;10249;48.900;9.090;2023-02-01T13:30:54;16.83;;;15.50;;
20179;SDS011;10249;48.900;9.090;2023-02-01T13:33:37;15.60;;;14.60;;
20179;SDS011;10249;48.900;9.090;2023-02-01T13:36:14;14.13;;;13.43;;
20179;SDS011;10249;48.900;9.090;2023-02-01T13:38:54;14.60;;;13.60;;
20179;SDS011;10249;48.900;9.090;2023-02-01T13:41:28;15.13;;;13.93;;
20179;SDS011;10249;48.900;9.090;2023-02-01T13:43:57;15.37;;;14.10;;
20179;SDS011;10249;48.900;9.090;2023-02-01T13:46:25;17.00;;;15.77;;
20179;SDS011;10249;48.900;9.090;2023-02-01T13:48:55;22.37;;;20.17;;
20179;SDS011;10249;48.900;9.090;2023-02-01T13:51:35;19.20;;;17.10;;
20179;SDS011;10249;48.900;9.090;2023-02-01T13:54:03;17.67;;;16.27;;
20179;SDS011;10249;48.900;9.090;2023-02-01T13:56:39;17.37;;;16.00;;
20179;SDS011;10249;48.900;9.090;2023-02-01T14:01:48;16.57;;;15.13;;
20179;SDS011;10249;48.900;9.090;2023-02-01T14:07:02;16.33;;;15.07;;
20179;SDS011;10249;48.900;9.090;2023-02-01T14:09:33;15.43;;;14.40;;
20179;SDS011;10249;48.900;9.090;2023-02-01T14:14:50;17.47;;;16.20;;
20179;SDS011;10249;48.900;9.090;2023-02-01T14:22:49;15.43;;;14.43;;
20179;SDS011;10249;48.900;9.090;2023-02-01T14:25:16;16.73;;;15.40;;
20179;SDS011;10249;48.900;9.090;2023-02-01T14:27:45;16.97;;;15.70;;
20179;SDS011;10249;48.900;9.090;2023-02-01T14:30:14;16.00;;;14.80;;
20179;SDS011;10249;48.900;9.090;2023-02-01T14:32:42;21.13;;;19.37;;
20179;SDS011;10249;48.900;9.090;2023-02-01T14:35:17;17.97;;;16.87;;
20179;SDS011;10249;48.900;9.090;2023-02-01T14:37:44;15.37;;;14.57;;
20179;SDS011;10249;48.900;9.090;2023-02-01T14:40:17;16.13;;;14.70;;
20179;SDS011;10249;48.900;9.090;2023-02-01T14:42:47;16.73;;;15.20;;
20179;SDS011;10249;48.900;9.090;2023-02-01T14:50:48;16.80;;;15.30;;
20179;SDS011;10249;48.900;9.090;2023-02-01T14:53:17;16.43;;;15.43;;
20179;SDS011;10249;48.900;9.090;2023-02-01T14:55:47;16.90;;;15.27;;
20179;SDS011;10249;48.900;9.090;2023-02-01T14:58:16;18.73;;;16.53;;
20179;SDS011;10249;48.900;9.090;2023-02-01T15:00:47;17.10;;;15.70;;
20179;SDS011;10249;48.900;9.090;2023-02-01T15:03:16;16.47;;;15.37;;
20179;SDS011;10249;48.900;9.090;2023-02-01T15:05:54;17.10;;;15.90;;
20179;SDS011;10249;48.900;9.090;2023-02-01T15:08:23;15.43;;;14.50;;
20179;SDS011;10249;48.900;9.090;2023-02-01T15:10:52;16.23;;;15.13;;